createdAt,value
2023-02-11T00:02:01.621Z,0.29
2023-02-11T00:04:30.021Z,0.21
2023-02-11T00:06:58.533Z,-0.67
2023-02-11T00:09:27.036Z,0.35
2023-02-11T00:11:55.356Z,-0.01
2023-02-11T00:14:23.774Z,0.28
2023-02-11T00:16:53.623Z,0.27
2023-02-11T00:19:22.051Z,0.22
2023-02-11T00:21:50.412Z,-0.05
2023-02-11T00:24:18.745Z,0.32
2023-02-11T00:26:47.106Z,0.49
2023-02-11T00:29:15.438Z,0.37
2023-02-11T00:31:43.847Z,0.36
2023-02-11T00:34:13.803Z,0.36
2023-02-11T00:36:42.623Z,0.06
2023-02-11T00:39:11.094Z,0.49
2023-02-11T00:41:39.458Z,0.58
2023-02-11T00:44:08.446Z,0.69
2023-02-11T00:46:36.919Z,0.55
2023-02-11T00:49:05.570Z,0.73
2023-02-11T00:51:35.598Z,0.64
2023-02-11T00:54:03.992Z,0.60
2023-02-11T00:56:32.812Z,0.80
2023-02-11T00:59:01.236Z,0.79
2023-02-11T01:01:29.668Z,0.91
2023-02-11T01:03:58.090Z,0.95
2023-02-11T01:06:26.605Z,0.90
2023-02-11T01:08:56.384Z,0.52
2023-02-11T01:11:24.978Z,0.88
2023-02-11T01:13:53.497Z,0.90
2023-02-11T01:16:23.334Z,0.83
2023-02-11T01:18:51.743Z,0.74
2023-02-11T01:21:20.298Z,0.83
2023-02-11T01:23:48.701Z,0.84
2023-02-11T01:26:18.613Z,0.78
2023-02-11T01:28:47.163Z,0.75
2023-02-11T01:31:16.157Z,0.65
2023-02-11T01:33:44.827Z,0.74
2023-02-11T01:36:13.851Z,0.99
2023-02-11T01:38:43.827Z,1.11
2023-02-11T01:41:15.221Z,0.71
2023-02-11T01:43:47.338Z,0.96
2023-02-11T01:46:33.800Z,0.80
2023-02-11T01:49:07.402Z,0.94
2023-02-11T01:51:40.666Z,0.89
2023-02-11T01:54:29.752Z,0.86
2023-02-11T01:57:18.311Z,0.43
2023-02-11T01:59:55.342Z,0.78
2023-02-11T02:02:28.590Z,0.84
2023-02-11T02:05:02.225Z,0.79
2023-02-11T02:07:34.734Z,0.65
2023-02-11T02:10:08.278Z,0.79
2023-02-11T02:12:36.684Z,0.75
2023-02-11T02:15:27.803Z,0.84
2023-02-11T02:18:01.927Z,0.82
2023-02-11T02:21:04.216Z,0.74
2023-02-11T02:23:59.232Z,1.07
2023-02-11T02:26:55.687Z,1.12
2023-02-11T02:29:57.893Z,1.09
2023-02-11T02:32:48.674Z,1.13
2023-02-11T02:35:28.120Z,1.05
2023-02-11T02:38:03.296Z,1.09
2023-02-11T02:40:36.949Z,1.03
2023-02-11T02:43:06.137Z,0.82
2023-02-11T02:45:34.842Z,0.81
2023-02-11T02:48:04.829Z,0.94
2023-02-11T02:50:37.772Z,0.96
2023-02-11T02:53:20.183Z,0.98
2023-02-11T02:56:01.764Z,1.05
2023-02-11T02:59:09.454Z,1.09
2023-02-11T03:01:47.134Z,1.09
2023-02-11T03:04:25.332Z,0.91
2023-02-11T03:06:59.335Z,1.09
2023-02-11T03:09:33.109Z,1.11
2023-02-11T03:12:04.046Z,1.17
2023-02-11T03:14:33.813Z,1.19
2023-02-11T03:17:06.176Z,0.95
2023-02-11T03:19:39.842Z,1.13
2023-02-11T03:22:10.358Z,1.06
2023-02-11T03:24:40.919Z,1.17
2023-02-11T03:27:17.811Z,1.27
2023-02-11T03:29:54.725Z,1.24
2023-02-11T03:32:28.677Z,1.26
2023-02-11T03:35:02.396Z,1.48
2023-02-11T03:37:33.845Z,1.25
2023-02-11T03:40:04.803Z,1.34
2023-02-11T03:42:37.382Z,1.08
2023-02-11T03:45:09.916Z,1.43
2023-02-11T03:47:43.171Z,1.54
2023-02-11T03:50:15.953Z,1.62
2023-02-11T03:52:45.449Z,1.57
2023-02-11T03:55:20.844Z,1.47
2023-02-11T03:57:49.691Z,1.62
2023-02-11T04:00:18.179Z,1.79
2023-02-11T04:02:46.690Z,1.73
2023-02-11T04:05:17.654Z,1.87
2023-02-11T04:07:46.030Z,2.10
2023-02-11T04:10:14.574Z,1.87
2023-02-11T04:12:43.473Z,1.84
2023-02-11T04:15:11.880Z,1.79
2023-02-11T04:17:41.258Z,1.67
2023-02-11T04:20:10.534Z,1.46
2023-02-11T04:22:40.637Z,1.47
2023-02-11T04:25:10.716Z,1.69
2023-02-11T04:27:39.450Z,1.65
2023-02-11T04:30:09.157Z,1.51
2023-02-11T04:32:37.590Z,1.66
2023-02-11T04:35:06.786Z,1.72
2023-02-11T04:37:35.836Z,1.72
2023-02-11T04:40:06.524Z,1.83
2023-02-11T04:42:34.871Z,1.77
2023-02-11T04:45:03.228Z,1.80
2023-02-11T04:47:31.704Z,1.75
2023-02-11T04:50:00.038Z,1.76
2023-02-11T04:52:28.428Z,1.49
2023-02-11T04:54:56.817Z,1.55
2023-02-11T04:57:26.562Z,1.44
2023-02-11T04:59:54.960Z,1.42
2023-02-11T05:02:23.391Z,1.44
2023-02-11T05:04:51.826Z,1.37
2023-02-11T05:07:20.160Z,1.43
2023-02-11T05:09:48.503Z,1.52
2023-02-11T05:12:17.167Z,1.60
2023-02-11T05:14:46.912Z,1.51
2023-02-11T05:17:15.362Z,1.30
2023-02-11T05:19:44.097Z,1.50
2023-02-11T05:22:12.534Z,1.62
2023-02-11T05:24:41.039Z,1.63
2023-02-11T05:27:09.366Z,1.72
2023-02-11T05:29:38.114Z,1.85
2023-02-11T05:32:09.329Z,1.95
2023-02-11T05:34:38.056Z,2.03
2023-02-11T05:37:06.667Z,1.96
2023-02-11T05:39:35.095Z,1.88
2023-02-11T05:42:03.514Z,2.07
2023-02-11T05:44:31.902Z,2.18
2023-02-11T05:47:00.328Z,2.07
2023-02-11T05:49:30.068Z,2.06
2023-02-11T05:51:58.641Z,1.93
2023-02-11T05:54:26.940Z,2.11
2023-02-11T05:56:55.320Z,1.81
2023-02-11T05:59:23.587Z,2.08
2023-02-11T06:01:51.987Z,2.08
2023-02-11T06:04:20.318Z,2.18
2023-02-11T06:06:50.586Z,2.14
2023-02-11T06:09:18.972Z,2.10
2023-02-11T06:11:47.628Z,2.10
2023-02-11T06:14:16.020Z,2.09
2023-02-11T06:16:44.407Z,1.43
2023-02-11T06:19:12.784Z,2.15
2023-02-11T06:21:44.238Z,1.78
2023-02-11T06:24:14.439Z,2.06
2023-02-11T06:26:42.974Z,2.27
2023-02-11T06:29:11.285Z,2.27
2023-02-11T06:31:40.503Z,2.12
2023-02-11T06:34:09.484Z,2.23
2023-02-11T06:36:39.819Z,2.21
2023-02-11T06:39:08.832Z,2.31
2023-02-11T06:41:38.666Z,1.92
2023-02-11T06:44:07.498Z,2.18
2023-02-11T06:46:37.290Z,2.20
2023-02-11T06:49:06.827Z,1.86
2023-02-11T06:51:35.550Z,2.13
2023-02-11T06:54:03.815Z,2.14
2023-02-11T06:56:32.223Z,2.11
2023-02-11T06:59:02.606Z,2.14
2023-02-11T07:01:31.157Z,2.02
2023-02-11T07:03:59.614Z,2.20
2023-02-11T07:06:29.114Z,1.65
2023-02-11T07:08:57.626Z,2.13
2023-02-11T07:11:28.350Z,2.11
2023-02-11T07:14:00.831Z,2.07
2023-02-11T07:16:30.997Z,2.06
2023-02-11T07:18:59.650Z,2.03
2023-02-11T07:21:28.283Z,2.09
2023-02-11T07:23:56.715Z,2.11
2023-02-11T07:26:26.436Z,2.12
2023-02-11T07:28:55.060Z,1.97
2023-02-11T07:31:25.526Z,2.01
2023-02-11T07:33:56.385Z,2.07
2023-02-11T07:36:25.035Z,1.87
2023-02-11T07:38:53.545Z,2.06
2023-02-11T07:41:24.582Z,2.08
2023-02-11T07:43:52.928Z,2.10
2023-02-11T07:46:23.251Z,1.96
2023-02-11T07:48:52.090Z,2.11
2023-02-11T07:51:24.477Z,2.13
2023-02-11T07:53:53.605Z,2.19
2023-02-11T07:56:23.999Z,2.29
2023-02-11T07:58:52.693Z,2.34
2023-02-11T08:01:25.445Z,2.41
2023-02-11T08:03:54.427Z,2.46
2023-02-11T08:06:25.641Z,2.38
2023-02-11T08:08:54.528Z,2.54
2023-02-11T08:11:24.848Z,2.46
2023-02-11T08:13:54.257Z,2.34
2023-02-11T08:16:25.024Z,2.56
2023-02-11T08:18:54.448Z,2.42
2023-02-11T08:21:24.189Z,2.42
2023-02-11T08:23:52.873Z,2.27
2023-02-11T08:26:23.753Z,2.35
2023-02-11T08:28:53.953Z,2.36
2023-02-11T08:31:25.026Z,1.73
2023-02-11T08:33:54.966Z,2.58
2023-02-11T08:36:26.470Z,2.52
2023-02-11T08:39:08.596Z,2.22
2023-02-11T08:41:46.105Z,2.39
2023-02-11T08:44:15.446Z,2.07
2023-02-11T08:46:43.982Z,2.22
2023-02-11T08:49:13.180Z,2.20
2023-02-11T08:51:43.574Z,2.26
2023-02-11T08:54:12.119Z,2.14
2023-02-11T08:56:41.252Z,1.81
2023-02-11T08:59:11.059Z,2.05
2023-02-11T09:01:39.620Z,2.03
2023-02-11T09:04:08.234Z,2.14
2023-02-11T09:06:36.706Z,2.03
2023-02-11T09:09:07.392Z,2.09
2023-02-11T09:11:37.497Z,2.11
2023-02-11T09:14:05.999Z,2.12
2023-02-11T09:16:36.149Z,1.79
2023-02-11T09:19:06.736Z,2.09
2023-02-11T09:21:35.850Z,2.12
2023-02-11T09:24:07.804Z,1.88
2023-02-11T09:26:38.403Z,2.08
2023-02-11T09:29:08.171Z,2.14
2023-02-11T09:31:37.462Z,2.18
2023-02-11T09:34:08.087Z,2.27
2023-02-11T09:36:38.822Z,2.33
2023-02-11T09:39:15.121Z,2.47
2023-02-11T09:42:04.920Z,2.47
2023-02-11T09:44:36.424Z,2.51
2023-02-11T09:47:08.103Z,2.60
2023-02-11T09:49:42.559Z,2.57
2023-02-11T09:52:23.367Z,2.54
2023-02-11T09:54:57.065Z,2.66
2023-02-11T09:57:29.301Z,2.53
2023-02-11T09:59:58.573Z,2.65
2023-02-11T10:10:26.527Z,2.58
2023-02-11T10:13:07.935Z,2.73
2023-02-11T10:15:46.527Z,2.78
2023-02-11T10:18:52.948Z,2.80
2023-02-11T10:21:30.493Z,2.88
2023-02-11T10:24:04.317Z,2.96
2023-02-11T10:26:37.981Z,3.02
2023-02-11T10:29:13.837Z,3.12
2023-02-11T10:31:46.984Z,3.14
2023-02-11T10:34:17.082Z,3.24
2023-02-11T10:36:46.674Z,3.33
2023-02-11T10:39:18.079Z,3.53
2023-02-11T10:41:52.259Z,3.56
2023-02-11T10:44:32.476Z,3.75
2023-02-11T10:47:04.418Z,3.70
2023-02-11T10:49:38.718Z,3.72
2023-02-11T10:52:31.855Z,3.86
2023-02-11T10:55:03.238Z,3.99
2023-02-11T10:57:37.995Z,3.95
2023-02-11T11:00:22.473Z,4.21
2023-02-11T11:02:56.995Z,4.25
2023-02-11T11:05:31.869Z,4.15
2023-02-11T11:08:01.972Z,4.15
2023-02-11T11:10:37.148Z,4.17
2023-02-11T11:13:07.634Z,4.17
2023-02-11T11:15:37.535Z,4.23
2023-02-11T11:18:22.553Z,4.11
2023-02-11T11:21:03.596Z,4.31
2023-02-11T11:23:33.508Z,4.03
2023-02-11T11:26:07.179Z,3.95
2023-02-11T11:28:40.955Z,4.00
2023-02-11T11:31:18.660Z,3.92
2023-02-11T11:33:49.613Z,3.99
2023-02-11T11:36:22.713Z,4.08
2023-02-11T11:38:56.439Z,4.14
2023-02-11T11:41:27.394Z,4.38
2023-02-11T11:44:01.090Z,4.42
2023-02-11T11:46:32.075Z,4.30
2023-02-11T11:49:09.398Z,4.48
2023-02-11T11:51:41.406Z,4.41
2023-02-11T11:54:15.052Z,4.43
2023-02-11T11:56:52.342Z,4.50
2023-02-11T11:59:23.630Z,4.53
2023-02-11T12:02:15.493Z,4.57
2023-02-11T12:05:01.836Z,4.36
2023-02-11T12:07:50.735Z,4.54
2023-02-11T12:10:33.006Z,4.66
2023-02-11T12:13:17.290Z,4.61
2023-02-11T12:15:56.923Z,4.76
2023-02-11T12:18:45.503Z,4.92
2023-02-11T12:21:29.735Z,4.78
2023-02-11T12:24:17.505Z,4.81
2023-02-11T12:26:51.422Z,4.80
2023-02-11T12:29:33.641Z,4.82
2023-02-11T12:32:27.585Z,4.89
2023-02-11T12:35:23.073Z,5.02
2023-02-11T12:38:09.104Z,5.02
2023-02-11T12:40:46.557Z,5.05
2023-02-11T12:43:24.063Z,4.96
2023-02-11T12:46:39.981Z,4.98
2023-02-11T12:49:38.905Z,4.87
2023-02-11T12:52:24.659Z,4.94
2023-02-11T12:55:00.235Z,4.72
2023-02-11T12:57:32.539Z,4.73
2023-02-11T13:00:07.769Z,4.90
2023-02-11T13:02:45.720Z,4.79
2023-02-11T13:05:24.238Z,4.78
2023-02-11T13:07:57.317Z,4.85
2023-02-11T13:10:31.354Z,4.87
2023-02-11T13:13:20.180Z,5.13
2023-02-11T13:15:52.023Z,4.87
2023-02-11T13:18:41.528Z,5.01
2023-02-11T13:21:30.782Z,5.05
2023-02-11T13:24:11.183Z,4.99
2023-02-11T13:26:49.052Z,5.07
2023-02-11T13:29:28.952Z,4.72
2023-02-11T13:31:58.588Z,5.12
2023-02-11T13:34:48.334Z,5.19
2023-02-11T13:37:24.299Z,5.10
2023-02-11T13:40:03.199Z,5.12
2023-02-11T13:42:33.903Z,5.25
2023-02-11T13:45:02.735Z,5.35
2023-02-11T13:47:34.600Z,5.19
2023-02-11T13:50:07.092Z,5.18
2023-02-11T13:52:40.329Z,5.33
2023-02-11T13:55:21.696Z,5.26
2023-02-11T13:58:19.031Z,5.04
2023-02-11T14:00:50.484Z,5.15
2023-02-11T14:03:57.471Z,5.09
2023-02-11T14:06:46.254Z,4.90
2023-02-11T14:09:39.252Z,5.15
2023-02-11T14:12:37.829Z,5.05
2023-02-11T14:15:26.713Z,4.70
2023-02-11T14:17:55.211Z,4.77
2023-02-11T14:20:46.661Z,4.70
2023-02-11T14:23:27.668Z,4.84
2023-02-11T14:26:24.008Z,4.66
2023-02-11T14:28:57.785Z,4.57
2023-02-11T14:31:28.164Z,4.34
2023-02-11T14:34:16.888Z,4.48
2023-02-11T14:37:18.776Z,4.58
2023-02-11T14:39:58.474Z,4.51
2023-02-11T14:42:31.179Z,4.65
2023-02-11T14:45:04.592Z,4.10
2023-02-11T14:47:42.012Z,4.51
2023-02-11T14:50:19.288Z,4.42
2023-02-11T14:52:48.531Z,4.39
2023-02-11T14:55:27.157Z,4.50
2023-02-11T14:58:09.508Z,4.49
2023-02-11T15:00:37.940Z,4.59
2023-02-11T15:03:06.284Z,4.50
2023-02-11T15:05:35.151Z,4.53
2023-02-11T15:08:07.926Z,4.49
2023-02-11T15:10:43.740Z,4.52
2023-02-11T15:13:21.669Z,4.38
2023-02-11T15:15:54.773Z,4.50
2023-02-11T15:18:26.876Z,4.38
2023-02-11T15:20:55.404Z,4.44
2023-02-11T15:23:27.579Z,4.47
2023-02-11T15:25:56.674Z,4.47
2023-02-11T15:28:30.150Z,4.29
2023-02-11T15:31:00.551Z,4.21
2023-02-11T15:33:30.537Z,4.25
2023-02-11T15:35:59.885Z,4.27
2023-02-11T15:38:29.954Z,4.10
2023-02-11T15:41:01.024Z,4.19
2023-02-11T15:43:44.623Z,4.42
2023-02-11T15:46:15.864Z,4.27
2023-02-11T15:48:48.763Z,4.28
2023-02-11T15:51:22.176Z,4.20
2023-02-11T15:53:56.952Z,4.24
2023-02-11T15:56:29.898Z,3.90
2023-02-11T15:59:02.032Z,4.32
2023-02-11T16:01:34.047Z,4.36
2023-02-11T16:04:04.100Z,4.38
2023-02-11T16:06:38.482Z,4.41
2023-02-11T16:09:23.087Z,4.43
2023-02-11T16:12:03.728Z,4.30
2023-02-11T16:14:37.562Z,4.39
2023-02-11T16:17:09.640Z,4.43
2023-02-11T16:19:44.279Z,4.43
2023-02-11T16:22:17.317Z,4.18
2023-02-11T16:24:49.756Z,4.48
2023-02-11T16:27:23.477Z,4.41
2023-02-11T16:29:53.427Z,4.32
2023-02-11T16:32:23.618Z,4.40
2023-02-11T16:34:53.017Z,4.32
2023-02-11T16:37:21.405Z,4.60
2023-02-11T16:39:49.686Z,4.38
2023-02-11T16:42:18.164Z,4.48
2023-02-11T16:44:46.448Z,4.39
2023-02-11T16:47:22.106Z,4.71
2023-02-11T16:49:50.900Z,4.66
2023-02-11T16:52:21.372Z,4.71
2023-02-11T16:54:49.924Z,4.62
2023-02-11T16:57:21.115Z,4.66
2023-02-11T16:59:50.171Z,4.48
2023-02-11T17:02:24.138Z,4.61
2023-02-11T17:04:53.684Z,4.62
2023-02-11T17:07:22.569Z,4.55
2023-02-11T17:09:52.097Z,4.60
2023-02-11T17:12:20.560Z,4.62
2023-02-11T17:14:49.021Z,4.62
2023-02-11T17:17:17.709Z,4.62
2023-02-11T17:19:49.894Z,4.62
2023-02-11T17:22:19.118Z,4.61
2023-02-11T17:24:47.371Z,4.64
2023-02-11T17:27:17.466Z,4.57
2023-02-11T17:29:46.765Z,4.71
2023-02-11T17:32:15.901Z,4.23
2023-02-11T17:34:46.583Z,4.59
2023-02-11T17:37:17.160Z,4.67
2023-02-11T17:39:45.976Z,4.70
2023-02-11T17:42:15.125Z,4.68
2023-02-11T17:44:46.206Z,4.45
2023-02-11T17:47:16.113Z,4.63
2023-02-11T17:49:45.189Z,4.56
2023-02-11T17:52:16.863Z,4.63
2023-02-11T17:54:47.787Z,4.62
2023-02-11T17:57:16.522Z,4.62
2023-02-11T17:59:45.021Z,4.66
2023-02-11T18:02:14.182Z,4.66
2023-02-11T18:04:44.654Z,4.65
2023-02-11T18:07:14.395Z,4.52
2023-02-11T18:09:46.095Z,4.56
2023-02-11T18:12:15.150Z,4.62
2023-02-11T18:14:46.419Z,4.65
2023-02-11T18:17:15.688Z,4.53
2023-02-11T18:19:44.579Z,4.63
2023-02-11T18:22:14.504Z,4.47
2023-02-11T18:24:46.224Z,4.63
2023-02-11T18:27:15.243Z,4.41
2023-02-11T18:29:43.524Z,4.60
2023-02-11T18:32:12.331Z,4.40
2023-02-11T18:34:41.840Z,4.60
2023-02-11T18:37:11.702Z,4.18
2023-02-11T18:39:39.951Z,4.63
2023-02-11T18:42:09.948Z,4.59
2023-02-11T18:44:38.630Z,4.62
2023-02-11T18:47:06.979Z,4.70
2023-02-11T18:49:36.305Z,4.62
2023-02-11T18:52:04.875Z,4.70
2023-02-11T18:54:33.126Z,4.57
2023-02-11T18:57:01.672Z,4.59
2023-02-11T18:59:31.943Z,4.59
2023-02-11T19:02:00.329Z,4.60
2023-02-11T19:04:28.795Z,4.71
2023-02-11T19:06:57.310Z,4.63
2023-02-11T19:09:25.921Z,4.59
2023-02-11T19:11:55.734Z,4.52
2023-02-11T19:14:25.742Z,4.64
2023-02-11T19:16:57.478Z,4.68
2023-02-11T19:19:28.156Z,3.95
2023-02-11T19:21:57.538Z,4.60
2023-02-11T19:24:27.260Z,4.29
2023-02-11T19:26:58.247Z,4.61
2023-02-11T19:29:29.088Z,4.57
2023-02-11T19:31:59.465Z,4.57
2023-02-11T19:34:28.540Z,4.69
2023-02-11T19:36:59.721Z,4.62
2023-02-11T19:39:28.688Z,4.59
2023-02-11T19:41:57.658Z,4.65
2023-02-11T19:44:26.105Z,4.59
2023-02-11T19:46:54.923Z,4.50
2023-02-11T19:49:26.391Z,4.49
2023-02-11T19:51:57.508Z,4.60
2023-02-11T19:54:27.510Z,4.51
2023-02-11T19:56:56.100Z,4.48
2023-02-11T19:59:24.608Z,4.44
2023-02-11T20:01:54.490Z,4.44
2023-02-11T20:04:27.030Z,4.50
2023-02-11T20:06:56.266Z,4.23
2023-02-11T20:09:26.722Z,4.43
2023-02-11T20:11:59.374Z,4.41
2023-02-11T20:14:28.211Z,4.05
2023-02-11T20:16:57.128Z,4.39
2023-02-11T20:19:30.458Z,4.36
2023-02-11T20:21:59.216Z,4.34
2023-02-11T20:24:28.308Z,4.34
2023-02-11T20:26:57.277Z,4.38
2023-02-11T20:29:27.777Z,4.38
2023-02-11T20:31:56.592Z,4.07
2023-02-11T20:34:26.500Z,4.27
2023-02-11T20:36:56.147Z,4.08
2023-02-11T20:39:25.845Z,4.26
2023-02-11T20:41:55.210Z,4.26
2023-02-11T20:44:24.244Z,4.25
2023-02-11T20:46:54.643Z,4.24
2023-02-11T20:49:28.654Z,4.25
2023-02-11T20:51:58.616Z,4.35
2023-02-11T20:54:28.203Z,4.31
2023-02-11T20:56:58.936Z,4.30
2023-02-11T20:59:27.735Z,4.29
2023-02-11T21:01:58.402Z,4.32
2023-02-11T21:04:30.246Z,4.32
2023-02-11T21:07:01.275Z,4.33
2023-02-11T21:09:33.997Z,4.08
2023-02-11T21:12:04.478Z,4.36
2023-02-11T21:14:34.696Z,4.32
2023-02-11T21:17:03.998Z,4.27
2023-02-11T21:19:33.917Z,4.37
2023-02-11T21:22:03.402Z,4.42
2023-02-11T21:24:32.557Z,4.21
2023-02-11T21:27:01.132Z,4.29
2023-02-11T21:29:30.268Z,4.57
2023-02-11T21:31:59.303Z,4.34
2023-02-11T21:34:27.734Z,4.63
2023-02-11T21:36:59.435Z,4.54
2023-02-11T21:39:29.147Z,4.55
2023-02-11T21:41:58.640Z,4.51
2023-02-11T21:44:27.956Z,4.51
2023-02-11T21:46:56.799Z,4.60
2023-02-11T21:49:26.480Z,4.56
2023-02-11T21:51:57.168Z,4.60
2023-02-11T21:54:29.288Z,4.63
2023-02-11T21:56:57.654Z,4.66
2023-02-11T21:59:26.921Z,4.44
2023-02-11T22:01:55.228Z,4.63
2023-02-11T22:04:24.656Z,4.72
2023-02-11T22:06:54.351Z,4.72
2023-02-11T22:09:25.777Z,4.68
2023-02-11T22:11:57.131Z,4.67
2023-02-11T22:14:26.689Z,4.68
2023-02-11T22:16:56.749Z,4.68
2023-02-11T22:19:27.542Z,4.72
2023-02-11T22:21:57.356Z,4.72
2023-02-11T22:24:30.162Z,4.70
2023-02-11T22:27:00.104Z,4.68
2023-02-11T22:29:29.103Z,4.39
2023-02-11T22:31:57.626Z,4.59
2023-02-11T22:34:26.000Z,4.65
2023-02-11T22:36:54.376Z,4.69
2023-02-11T22:39:22.868Z,4.66
2023-02-11T22:41:54.644Z,4.63
2023-02-11T22:44:22.936Z,4.63
2023-02-11T22:46:51.581Z,4.42
2023-02-11T22:49:21.451Z,4.71
2023-02-11T22:51:50.361Z,4.52
2023-02-11T22:54:20.170Z,4.66
2023-02-11T22:56:53.413Z,4.64
2023-02-11T22:59:22.633Z,4.61
2023-02-11T23:01:51.217Z,4.61
2023-02-11T23:04:20.987Z,4.75
2023-02-11T23:06:50.133Z,4.50
2023-02-11T23:09:18.547Z,4.78
2023-02-11T23:11:48.661Z,4.79
2023-02-11T23:14:18.325Z,4.83
2023-02-11T23:16:46.802Z,4.82
2023-02-11T23:19:15.081Z,4.87
2023-02-11T23:21:43.612Z,4.80
2023-02-11T23:24:16.585Z,4.80
2023-02-11T23:26:45.738Z,4.78
2023-02-11T23:29:14.587Z,4.85
2023-02-11T23:31:46.613Z,4.85
2023-02-11T23:34:17.427Z,4.83
2023-02-11T23:36:45.865Z,4.73
2023-02-11T23:39:16.128Z,4.76
2023-02-11T23:41:44.644Z,4.77
2023-02-11T23:44:13.176Z,4.77
2023-02-11T23:46:41.470Z,4.75
2023-02-11T23:49:11.233Z,4.74
2023-02-11T23:51:39.533Z,4.74
2023-02-11T23:54:07.822Z,4.66
2023-02-11T23:56:37.106Z,4.77
2023-02-11T23:59:05.462Z,4.73
